createdAt,value
2023-04-12T00:00:11.446Z,9.65
2023-04-12T00:02:39.583Z,9.52
2023-04-12T00:05:09.412Z,7.85
2023-04-12T00:07:36.119Z,9.50
2023-04-12T00:10:03.216Z,5.97
2023-04-12T00:12:29.849Z,5.47
2023-04-12T00:14:56.557Z,7.38
2023-04-12T00:17:23.362Z,11.98
2023-04-12T00:19:50.094Z,5.07
2023-04-12T00:22:16.883Z,4.20
2023-04-12T00:24:43.681Z,7.45
2023-04-12T00:27:10.561Z,5.10
2023-04-12T00:29:37.339Z,6.38
2023-04-12T00:32:05.672Z,5.95
2023-04-12T00:34:32.604Z,5.50
2023-04-12T00:37:00.571Z,5.55
2023-04-12T00:39:27.471Z,6.22
2023-04-12T00:42:00.773Z,4.65
2023-04-12T00:44:27.472Z,7.22
2023-04-12T00:46:54.405Z,6.33
2023-04-12T00:49:21.262Z,3.50
2023-04-12T00:51:48.016Z,3.10
2023-04-12T00:54:17.986Z,5.43
2023-04-12T00:56:47.151Z,5.70
2023-04-12T00:59:14.317Z,7.63
2023-04-12T01:01:41.346Z,7.97
2023-04-12T01:04:09.227Z,4.72
2023-04-12T01:06:55.988Z,3.97
2023-04-12T01:09:49.477Z,6.82
2023-04-12T01:13:07.080Z,6.83
2023-04-12T01:15:41.244Z,6.03
2023-04-12T01:18:17.364Z,4.15
2023-04-12T01:20:57.550Z,3.63
2023-04-12T01:23:52.768Z,3.10
2023-04-12T01:26:37.162Z,5.10
2023-04-12T01:29:09.904Z,5.93
2023-04-12T01:31:39.720Z,5.40
2023-04-12T01:34:11.353Z,6.10
2023-04-12T01:36:39.800Z,4.72
2023-04-12T01:39:07.332Z,7.73
2023-04-12T01:41:38.564Z,6.25
2023-04-12T01:44:05.804Z,8.60
2023-04-12T01:46:32.691Z,4.85
2023-04-12T01:48:59.401Z,5.25
2023-04-12T01:51:55.532Z,9.83
2023-04-12T01:54:27.718Z,5.47
2023-04-12T01:56:58.370Z,6.18
2023-04-12T01:59:36.228Z,7.45
2023-04-12T02:02:03.833Z,6.05
2023-04-12T02:04:33.561Z,5.70
2023-04-12T02:07:00.767Z,7.45
2023-04-12T02:09:27.501Z,6.60
2023-04-12T02:11:54.275Z,3.97
2023-04-12T02:14:21.840Z,5.18
2023-04-12T02:16:50.568Z,5.17
2023-04-12T02:19:17.395Z,6.30
2023-04-12T02:21:45.525Z,4.88
2023-04-12T02:24:12.684Z,4.65
2023-04-12T02:26:40.071Z,3.55
2023-04-12T02:29:10.144Z,6.57
2023-04-12T02:31:38.949Z,6.82
2023-04-12T02:34:08.545Z,5.55
2023-04-12T02:36:37.761Z,3.38
2023-04-12T02:39:05.141Z,6.22
2023-04-12T02:41:34.467Z,4.67
2023-04-12T02:44:01.178Z,5.47
2023-04-12T02:46:28.511Z,4.35
2023-04-12T02:48:58.247Z,3.33
2023-04-12T02:51:32.715Z,6.95
2023-04-12T02:54:01.261Z,7.60
2023-04-12T02:56:37.973Z,3.80
2023-04-12T02:59:18.423Z,3.67
2023-04-12T03:02:06.784Z,5.20
2023-04-12T03:04:37.378Z,5.15
2023-04-12T03:07:05.313Z,7.63
2023-04-12T03:09:38.778Z,4.43
2023-04-12T03:12:06.136Z,6.85
2023-04-12T03:14:37.569Z,5.72
2023-04-12T03:17:06.255Z,7.25
2023-04-12T03:19:36.604Z,8.37
2023-04-12T03:22:04.587Z,5.65
2023-04-12T03:24:34.776Z,3.80
2023-04-12T03:27:03.787Z,5.93
2023-04-12T03:29:32.795Z,3.90
2023-04-12T03:31:59.825Z,4.93
2023-04-12T03:34:32.276Z,8.70
2023-04-12T03:37:03.707Z,7.88
2023-04-12T03:39:44.816Z,3.45
2023-04-12T03:42:21.576Z,4.45
2023-04-12T03:44:53.273Z,4.43
2023-04-12T03:47:22.068Z,2.90
2023-04-12T03:49:58.771Z,8.88
2023-04-12T03:52:37.125Z,6.03
2023-04-12T03:55:07.660Z,6.65
2023-04-12T03:57:36.054Z,6.93
2023-04-12T04:00:04.480Z,6.00
2023-04-12T04:02:45.048Z,6.55
2023-04-12T04:05:13.141Z,3.55
2023-04-12T04:07:41.266Z,6.47
2023-04-12T04:10:09.599Z,5.57
2023-04-12T04:12:39.525Z,3.60
2023-04-12T04:15:09.047Z,4.85
2023-04-12T04:17:35.832Z,3.75
2023-04-12T04:20:05.345Z,6.10
2023-04-12T04:22:33.598Z,5.00
2023-04-12T04:25:03.039Z,4.22
2023-04-12T04:27:34.229Z,3.40
2023-04-12T04:30:02.828Z,5.28
2023-04-12T04:32:31.648Z,6.10
2023-04-12T04:34:59.815Z,5.47
2023-04-12T04:37:35.276Z,3.10
2023-04-12T04:40:08.028Z,7.55
2023-04-12T04:42:39.705Z,4.53
2023-04-12T04:45:13.757Z,3.20
2023-04-12T04:47:43.405Z,7.43
2023-04-12T04:50:10.573Z,6.32
2023-04-12T04:52:39.251Z,4.55
2023-04-12T04:55:11.391Z,6.65
2023-04-12T04:57:40.318Z,2.67
2023-04-12T05:00:11.501Z,4.57
2023-04-12T05:02:43.675Z,3.47
2023-04-12T05:05:13.892Z,5.25
2023-04-12T05:07:40.750Z,4.20
2023-04-12T05:10:08.116Z,4.50
2023-04-12T05:12:38.632Z,5.73
2023-04-12T05:15:19.921Z,5.82
2023-04-12T05:17:46.619Z,5.72
2023-04-12T05:20:13.482Z,7.45
2023-04-12T05:22:40.366Z,6.03
2023-04-12T05:25:07.480Z,5.57
2023-04-12T05:27:40.068Z,3.08
2023-04-12T05:30:09.284Z,3.60
2023-04-12T05:32:36.168Z,5.05
2023-04-12T05:35:03.523Z,3.88
2023-04-12T05:37:30.314Z,3.70
2023-04-12T05:39:57.126Z,3.25
2023-04-12T05:42:23.809Z,4.25
2023-04-12T05:44:50.855Z,2.78
2023-04-12T05:47:20.167Z,4.88
2023-04-12T05:49:47.757Z,5.80
2023-04-12T05:52:14.495Z,7.88
2023-04-12T05:54:41.827Z,4.78
2023-04-12T05:57:12.489Z,4.05
2023-04-12T05:59:39.291Z,4.60
2023-04-12T06:02:07.309Z,3.27
2023-04-12T06:04:48.575Z,4.85
2023-04-12T06:07:18.882Z,4.20
2023-04-12T06:09:46.043Z,6.72
2023-04-12T06:12:12.839Z,5.00
2023-04-12T06:14:40.269Z,3.50
2023-04-12T06:17:07.941Z,2.78
2023-04-12T06:19:34.638Z,2.63
2023-04-12T06:22:01.415Z,4.13
2023-04-12T06:24:28.751Z,4.13
2023-04-12T06:26:55.868Z,3.00
2023-04-12T06:29:22.700Z,4.00
2023-04-12T06:31:49.513Z,2.22
2023-04-12T06:34:16.296Z,4.18
2023-04-12T06:36:46.318Z,3.75
2023-04-12T06:39:14.042Z,6.90
2023-04-12T06:41:40.900Z,5.72
2023-04-12T06:44:07.590Z,2.85
2023-04-12T06:46:34.296Z,4.32
2023-04-12T06:49:01.316Z,3.15
2023-04-12T06:51:28.255Z,3.70
2023-04-12T06:53:56.135Z,3.25
2023-04-12T06:56:22.863Z,3.47
2023-04-12T06:58:49.886Z,4.90
2023-04-12T07:01:17.733Z,4.03
2023-04-12T07:03:44.846Z,3.03
2023-04-12T07:06:24.188Z,4.28
2023-04-12T07:08:52.530Z,6.30
2023-04-12T07:11:21.750Z,5.65
2023-04-12T07:13:49.586Z,4.60
2023-04-12T07:16:17.674Z,3.67
2023-04-12T07:18:44.631Z,5.07
2023-04-12T07:21:14.535Z,4.63
2023-04-12T07:23:41.368Z,3.63
2023-04-12T07:26:08.279Z,4.85
2023-04-12T07:28:36.215Z,8.50
2023-04-12T07:31:06.361Z,5.28
2023-04-12T07:33:34.866Z,4.18
2023-04-12T07:36:02.269Z,4.95
2023-04-12T07:38:28.995Z,6.00
2023-04-12T07:40:56.925Z,5.00
2023-04-12T07:43:23.768Z,5.40
2023-04-12T07:45:50.777Z,4.95
2023-04-12T07:48:17.863Z,4.82
2023-04-12T07:50:44.534Z,8.18
2023-04-12T07:53:28.528Z,5.23
2023-04-12T07:55:55.942Z,5.35
2023-04-12T07:58:24.165Z,8.52
2023-04-12T08:00:51.384Z,6.45
2023-04-12T08:03:19.236Z,9.88
2023-04-12T08:05:47.188Z,7.60
2023-04-12T08:08:14.093Z,5.65
2023-04-12T08:10:41.326Z,6.82
2023-04-12T08:13:08.617Z,7.85
2023-04-12T08:15:35.355Z,6.90
2023-04-12T08:18:02.683Z,6.80
2023-04-12T08:20:30.161Z,11.82
2023-04-12T08:22:57.085Z,4.78
2023-04-12T08:25:24.470Z,11.30
2023-04-12T08:27:51.531Z,8.75
2023-04-12T08:30:18.872Z,7.00
2023-04-12T08:32:45.871Z,7.85
2023-04-12T08:35:12.711Z,11.20
2023-04-12T08:37:39.382Z,13.00
2023-04-12T08:40:08.039Z,10.35
2023-04-12T08:42:36.966Z,8.60
2023-04-12T08:45:08.759Z,17.00
2023-04-12T08:47:43.699Z,11.18
2023-04-12T08:50:14.093Z,12.05
2023-04-12T08:52:42.763Z,10.90
2023-04-12T08:55:11.051Z,11.10
2023-04-12T08:57:41.136Z,13.40
2023-04-12T09:00:09.490Z,21.85
2023-04-12T09:02:38.195Z,13.23
2023-04-12T09:05:06.633Z,16.63
2023-04-12T09:07:33.809Z,13.60
2023-04-12T09:10:00.685Z,13.23
2023-04-12T09:12:27.474Z,13.73
2023-04-12T09:15:13.426Z,15.05
2023-04-12T09:17:41.602Z,16.35
2023-04-12T09:20:17.919Z,15.17
2023-04-12T09:22:46.564Z,15.68
2023-04-12T09:25:14.844Z,10.52
2023-04-12T09:27:52.577Z,20.65
2023-04-12T09:30:20.626Z,15.02
2023-04-12T09:32:50.720Z,13.30
2023-04-12T09:35:17.647Z,14.40
2023-04-12T09:37:44.334Z,12.15
2023-04-12T09:40:11.409Z,17.60
2023-04-12T09:42:53.600Z,14.30
2023-04-12T09:45:24.367Z,13.40
2023-04-12T09:47:52.549Z,18.30
2023-04-12T09:50:23.126Z,18.50
2023-04-12T09:52:50.748Z,13.05
2023-04-12T09:55:17.994Z,16.63
2023-04-12T09:57:45.499Z,20.67
2023-04-12T10:00:20.502Z,12.77
2023-04-12T10:02:52.998Z,14.88
2023-04-12T10:05:23.430Z,14.68
2023-04-12T10:07:50.749Z,15.88
2023-04-12T10:10:18.907Z,18.10
2023-04-12T10:12:47.477Z,11.68
2023-04-12T10:15:18.598Z,16.40
2023-04-12T10:17:47.490Z,13.40
2023-04-12T10:20:16.854Z,10.57
2023-04-12T10:22:46.695Z,15.43
2023-04-12T10:25:15.493Z,17.88
2023-04-12T10:27:44.208Z,15.20
2023-04-12T10:30:25.900Z,14.25
2023-04-12T10:33:05.289Z,14.05
2023-04-12T10:35:55.516Z,15.87
2023-04-12T10:38:26.649Z,13.90
2023-04-12T10:41:13.114Z,10.20
2023-04-12T10:43:41.412Z,16.35
2023-04-12T10:46:08.497Z,18.00
2023-04-12T10:48:39.022Z,16.53
2023-04-12T10:51:30.737Z,16.70
2023-04-12T10:54:07.708Z,15.48
2023-04-12T10:56:39.227Z,17.52
2023-04-12T10:59:13.148Z,16.58
2023-04-12T11:02:02.414Z,10.77
2023-04-12T11:04:29.494Z,17.52
2023-04-12T11:07:11.991Z,23.60
2023-04-12T11:09:42.569Z,14.95
2023-04-12T11:12:13.933Z,21.25
2023-04-12T11:14:51.592Z,16.63
2023-04-12T11:17:24.322Z,14.80
2023-04-12T11:19:53.829Z,16.13
2023-04-12T11:22:22.372Z,13.77
2023-04-12T11:24:54.539Z,13.48
2023-04-12T11:27:22.895Z,18.93
2023-04-12T11:29:55.653Z,21.42
2023-04-12T11:32:24.563Z,23.02
2023-04-12T11:34:51.387Z,24.15
2023-04-12T11:37:22.253Z,19.08
2023-04-12T11:39:52.643Z,17.23
2023-04-12T11:42:23.369Z,15.35
2023-04-12T11:44:56.373Z,17.92
2023-04-12T11:47:25.936Z,17.17
2023-04-12T11:49:54.882Z,13.85
2023-04-12T11:52:27.268Z,18.00
2023-04-12T11:54:56.435Z,17.25
2023-04-12T11:57:23.364Z,14.05
2023-04-12T11:59:50.265Z,18.33
2023-04-12T12:02:23.277Z,11.43
2023-04-12T12:04:52.051Z,12.90
2023-04-12T12:07:21.328Z,16.08
2023-04-12T12:09:49.937Z,8.10
2023-04-12T12:12:16.935Z,6.78
2023-04-12T12:14:45.062Z,9.48
2023-04-12T12:17:15.167Z,8.70
2023-04-12T12:19:43.870Z,12.68
2023-04-12T12:22:10.580Z,8.20
2023-04-12T12:24:41.248Z,7.82
2023-04-12T12:27:10.344Z,9.23
2023-04-12T12:29:38.529Z,9.03
2023-04-12T12:32:13.742Z,6.93
2023-04-12T12:34:58.749Z,9.27
2023-04-12T12:37:27.477Z,8.90
2023-04-12T12:40:13.358Z,10.70
2023-04-12T12:42:46.956Z,14.90
2023-04-12T12:45:14.700Z,6.60
2023-04-12T12:47:52.955Z,5.43
2023-04-12T12:50:24.966Z,5.88
2023-04-12T12:52:53.090Z,7.60
2023-04-12T12:55:21.337Z,4.67
2023-04-12T12:58:02.258Z,4.88
2023-04-12T13:00:33.332Z,5.72
2023-04-12T13:03:00.344Z,4.72
2023-04-12T13:05:27.328Z,5.68
2023-04-12T13:07:54.028Z,6.63
2023-04-12T13:10:20.910Z,6.53
2023-04-12T13:12:47.632Z,6.30
2023-04-12T13:17:44.107Z,6.00
2023-04-12T13:20:10.951Z,5.80
2023-04-12T13:22:37.776Z,5.50
2023-04-12T13:25:04.818Z,9.02
2023-04-12T13:27:31.673Z,4.50
2023-04-12T13:29:58.461Z,4.63
2023-04-12T13:32:25.224Z,5.67
2023-04-12T13:34:52.124Z,4.35
2023-04-12T13:37:18.769Z,5.75
2023-04-12T13:39:45.557Z,6.93
2023-04-12T13:42:14.368Z,7.72
2023-04-12T13:44:41.083Z,4.97
2023-04-12T13:47:07.857Z,4.20
2023-04-12T13:49:34.573Z,2.80
2023-04-12T13:52:02.791Z,4.45
2023-04-12T13:54:30.561Z,3.03
2023-04-12T13:56:58.166Z,3.67
2023-04-12T13:59:26.582Z,4.20
2023-04-12T14:01:54.176Z,5.65
2023-04-12T14:04:21.085Z,3.03
2023-04-12T14:06:48.063Z,3.67
2023-04-12T14:09:28.189Z,4.73
2023-04-12T14:11:56.464Z,3.38
2023-04-12T14:14:24.339Z,4.18
2023-04-12T14:16:53.369Z,3.47
2023-04-12T14:19:21.139Z,2.25
2023-04-12T14:21:48.821Z,4.33
2023-04-12T14:24:16.777Z,3.67
2023-04-12T14:26:43.630Z,3.10
2023-04-12T14:29:10.350Z,3.75
2023-04-12T14:31:38.008Z,3.78
2023-04-12T14:34:05.221Z,13.83
2023-04-12T14:36:33.267Z,2.15
2023-04-12T14:39:01.467Z,5.07
2023-04-12T14:41:28.291Z,5.15
2023-04-12T14:43:55.019Z,5.22
2023-04-12T14:46:22.093Z,5.33
2023-04-12T14:48:48.866Z,6.20
2023-04-12T14:51:15.926Z,3.78
2023-04-12T14:53:43.148Z,7.60
2023-04-12T14:56:25.335Z,4.63
2023-04-12T14:58:55.177Z,4.63
2023-04-12T15:01:23.619Z,7.88
2023-04-12T15:03:51.905Z,7.22
2023-04-12T15:06:20.433Z,4.03
2023-04-12T15:08:49.350Z,4.50
2023-04-12T15:11:18.933Z,5.60
2023-04-12T15:13:45.675Z,3.13
2023-04-12T15:16:12.492Z,4.63
2023-04-12T15:18:41.525Z,3.25
2023-04-12T15:21:09.424Z,2.65
2023-04-12T15:23:36.624Z,3.30
2023-04-12T15:26:03.766Z,5.57
2023-04-12T15:28:32.788Z,5.38
2023-04-12T15:30:59.751Z,4.22
2023-04-12T15:33:26.489Z,2.30
2023-04-12T15:35:57.043Z,3.97
2023-04-12T15:38:24.767Z,4.00
2023-04-12T15:40:56.373Z,4.05
2023-04-12T15:43:24.075Z,3.95
2023-04-12T15:45:54.891Z,4.47
2023-04-12T15:48:23.229Z,5.80
2023-04-12T15:50:51.069Z,5.20
2023-04-12T15:53:20.656Z,2.60
2023-04-12T15:55:47.603Z,2.92
2023-04-12T15:58:14.716Z,2.10
2023-04-12T16:00:42.159Z,5.63
2023-04-12T16:03:09.660Z,4.80
2023-04-12T16:05:36.782Z,5.72
2023-04-12T16:08:03.889Z,5.38
2023-04-12T16:10:30.622Z,2.50
2023-04-12T16:12:57.844Z,3.37
2023-04-12T16:15:25.033Z,4.82
2023-04-12T16:17:54.397Z,3.88
2023-04-12T16:20:22.334Z,2.95
2023-04-12T16:22:55.874Z,3.10
2023-04-12T16:25:24.300Z,4.33
2023-04-12T16:27:51.893Z,3.78
2023-04-12T16:30:18.716Z,4.63
2023-04-12T16:32:49.085Z,3.10
2023-04-12T16:35:16.431Z,3.65
2023-04-12T16:37:44.573Z,2.43
2023-04-12T16:40:14.841Z,3.20
2023-04-12T16:42:42.650Z,3.92
2023-04-12T16:45:11.885Z,2.92
2023-04-12T16:47:39.366Z,2.95
2023-04-12T16:50:08.745Z,3.03
2023-04-12T16:52:36.680Z,4.30
2023-04-12T16:55:04.685Z,6.30
2023-04-12T16:57:32.760Z,3.97
2023-04-12T16:59:59.568Z,3.78
2023-04-12T17:02:26.560Z,3.90
2023-04-12T17:04:53.416Z,5.70
2023-04-12T17:07:20.079Z,4.32
2023-04-12T17:09:46.784Z,3.85
2023-04-12T17:12:13.655Z,2.95
2023-04-12T17:14:40.612Z,4.40
2023-04-12T17:17:07.435Z,2.20
2023-04-12T17:19:34.164Z,4.10
2023-04-12T17:22:01.036Z,5.65
2023-04-12T17:24:29.197Z,3.80
2023-04-12T17:26:56.198Z,2.53
2023-04-12T17:29:23.002Z,3.28
2023-04-12T17:31:53.153Z,3.20
2023-04-12T17:34:21.788Z,5.25
2023-04-12T17:36:48.918Z,5.65
2023-04-12T17:39:16.098Z,4.83
2023-04-12T17:41:42.879Z,4.65
2023-04-12T17:44:09.637Z,3.85
2023-04-12T17:46:36.854Z,4.68
2023-04-12T17:49:05.587Z,5.88
2023-04-12T17:51:34.083Z,5.60
2023-04-12T17:54:03.469Z,4.65
2023-04-12T17:56:30.160Z,5.38
2023-04-12T17:58:57.338Z,10.45
2023-04-12T18:01:24.467Z,5.40
2023-04-12T18:03:51.419Z,5.47
2023-04-12T18:06:20.349Z,4.45
2023-04-12T18:08:47.196Z,3.70
2023-04-12T18:11:14.420Z,2.95
2023-04-12T18:13:41.907Z,4.30
2023-04-12T18:16:08.757Z,5.50
2023-04-12T18:18:36.398Z,3.45
2023-04-12T18:21:06.659Z,6.40
2023-04-12T18:23:33.456Z,5.05
2023-04-12T18:26:00.357Z,4.53
2023-04-12T18:28:27.543Z,3.90
2023-04-12T18:30:56.720Z,3.13
2023-04-12T18:33:23.965Z,5.68
2023-04-12T18:35:51.311Z,4.95
2023-04-12T18:38:18.618Z,3.05
2023-04-12T18:40:45.485Z,5.77
2023-04-12T18:43:12.232Z,5.53
2023-04-12T18:45:41.900Z,2.90
2023-04-12T18:48:09.196Z,4.45
2023-04-12T18:50:39.227Z,4.25
2023-04-12T18:53:07.713Z,5.77
2023-04-12T18:55:34.471Z,5.40
2023-04-12T18:58:01.331Z,5.10
2023-04-12T19:00:28.602Z,6.15
2023-04-12T19:02:55.623Z,6.72
2023-04-12T19:05:22.456Z,6.47
2023-04-12T19:07:50.645Z,6.95
2023-04-12T19:10:17.471Z,6.13
2023-04-12T19:12:44.717Z,4.55
2023-04-12T19:15:11.879Z,6.47
2023-04-12T19:17:39.430Z,6.80
2023-04-12T19:20:08.832Z,5.53
2023-04-12T19:22:36.223Z,8.30
2023-04-12T19:25:03.232Z,6.85
2023-04-12T19:27:29.969Z,9.75
2023-04-12T19:29:57.565Z,5.60
2023-04-12T19:32:24.468Z,9.05
2023-04-12T19:34:51.546Z,6.43
2023-04-12T19:37:18.267Z,7.03
2023-04-12T19:39:45.445Z,6.35
2023-04-12T19:42:14.309Z,9.33
2023-04-12T19:44:41.125Z,7.90
2023-04-12T19:47:07.994Z,5.82
2023-04-12T19:49:36.055Z,8.52
2023-04-12T19:52:05.591Z,5.43
2023-04-12T19:54:33.375Z,5.07
2023-04-12T19:57:00.096Z,7.03
2023-04-12T19:59:30.669Z,7.38
2023-04-12T20:01:58.104Z,6.28
2023-04-12T20:04:25.672Z,6.72
2023-04-12T20:06:52.464Z,9.87
2023-04-12T20:09:19.822Z,7.05
2023-04-12T20:11:46.661Z,5.22
2023-04-12T20:14:13.443Z,7.20
2023-04-12T20:16:43.723Z,5.85
2023-04-12T20:19:10.987Z,8.03
2023-04-12T20:21:38.925Z,9.00
2023-04-12T20:24:08.168Z,9.98
2023-04-12T20:26:37.463Z,9.00
2023-04-12T20:29:07.903Z,8.07
2023-04-12T20:31:34.642Z,9.67
2023-04-12T20:34:01.415Z,12.05
2023-04-12T20:36:29.539Z,8.48
2023-04-12T20:38:56.355Z,7.00
2023-04-12T20:41:24.282Z,9.10
2023-04-12T20:43:51.087Z,13.27
2023-04-12T20:46:25.680Z,7.43
2023-04-12T20:48:56.661Z,6.28
2023-04-12T20:51:23.954Z,9.80
2023-04-12T20:53:51.568Z,11.88
2023-04-12T20:56:21.060Z,7.40
2023-04-12T20:58:49.706Z,7.63
2023-04-12T21:01:16.605Z,5.20
2023-04-12T21:03:44.101Z,4.85
2023-04-12T21:06:11.101Z,6.55
2023-04-12T21:08:38.885Z,5.90
2023-04-12T21:11:06.031Z,6.85
2023-04-12T21:13:33.349Z,5.05
2023-04-12T21:16:02.285Z,4.43
2023-04-12T21:18:32.016Z,4.93
2023-04-12T21:20:59.273Z,3.83
2023-04-12T21:23:26.267Z,4.85
2023-04-12T21:25:52.908Z,5.63
2023-04-12T21:28:20.704Z,5.78
2023-04-12T21:30:49.428Z,4.07
2023-04-12T21:33:24.397Z,3.47
2023-04-12T21:35:55.116Z,4.60
2023-04-12T21:38:24.591Z,3.17
2023-04-12T21:40:51.507Z,2.65
2023-04-12T21:43:18.693Z,1.95
2023-04-12T21:45:46.016Z,1.87
2023-04-12T21:48:14.278Z,4.65
2023-04-12T21:50:41.793Z,4.80
2023-04-12T21:53:08.950Z,3.05
2023-04-12T21:55:36.241Z,4.07
2023-04-12T21:58:03.684Z,2.97
2023-04-12T22:00:32.047Z,2.92
2023-04-12T22:02:59.564Z,5.30
2023-04-12T22:05:27.873Z,5.32
2023-04-12T22:07:55.187Z,3.20
2023-04-12T22:10:21.854Z,3.37
2023-04-12T22:12:49.964Z,3.05
2023-04-12T22:15:17.244Z,4.70
2023-04-12T22:17:45.077Z,3.63
2023-04-12T22:20:13.087Z,4.05
2023-04-12T22:22:40.596Z,2.67
2023-04-12T22:25:10.013Z,3.17
2023-04-12T22:27:38.661Z,4.40
2023-04-12T22:30:07.291Z,2.33
2023-04-12T22:32:34.733Z,3.85
2023-04-12T22:35:08.284Z,4.63
2023-04-12T22:37:41.142Z,4.18
2023-04-12T22:40:12.218Z,5.13
2023-04-12T22:42:46.398Z,4.93
2023-04-12T22:45:17.532Z,2.53
2023-04-12T22:47:45.424Z,5.87
2023-04-12T22:50:12.896Z,6.75
2023-04-12T22:52:40.226Z,2.30
2023-04-12T22:55:09.083Z,2.50
2023-04-12T22:57:36.434Z,2.55
2023-04-12T23:00:07.315Z,2.77
2023-04-12T23:02:34.181Z,4.32
2023-04-12T23:05:02.390Z,3.40
2023-04-12T23:07:30.180Z,2.58
2023-04-12T23:09:57.762Z,3.05
2023-04-12T23:12:24.799Z,1.83
2023-04-12T23:14:55.335Z,1.90
2023-04-12T23:17:22.474Z,3.28
2023-04-12T23:19:51.660Z,2.38
2023-04-12T23:22:55.013Z,2.58
2023-04-12T23:25:23.551Z,2.60
2023-04-12T23:27:50.942Z,3.65
2023-04-12T23:30:18.435Z,4.18
2023-04-12T23:32:45.261Z,3.33
2023-04-12T23:35:12.174Z,3.50
2023-04-12T23:37:40.973Z,2.97
2023-04-12T23:40:14.070Z,3.95
2023-04-12T23:42:42.814Z,3.70
2023-04-12T23:45:13.513Z,2.75
2023-04-12T23:47:40.285Z,3.05
2023-04-12T23:50:07.509Z,2.27
2023-04-12T23:52:34.290Z,3.85
2023-04-12T23:55:02.464Z,5.20
2023-04-12T23:57:29.610Z,2.70
2023-04-12T23:59:56.874Z,4.43
